createdAt,value
2018-12-12T00:01:55.629Z,52.36
2018-12-12T00:04:21.797Z,53.01
2018-12-12T00:06:48.415Z,53.72
2018-12-12T00:09:14.554Z,52.55
2018-12-12T00:11:40.692Z,53.78
2018-12-12T00:14:06.864Z,52.40
2018-12-12T00:16:33.015Z,52.61
2018-12-12T00:18:59.365Z,52.02
2018-12-12T00:21:25.528Z,52.14
2018-12-12T00:23:51.665Z,52.16
2018-12-12T00:26:17.789Z,53.58
2018-12-12T00:28:44.010Z,54.45
2018-12-12T00:31:10.177Z,55.71
2018-12-12T00:33:36.338Z,57.45
2018-12-12T00:36:02.553Z,57.12
2018-12-12T00:38:28.697Z,58.10
2018-12-12T00:40:54.834Z,59.25
2018-12-12T00:43:21.129Z,59.11
2018-12-12T00:45:47.274Z,59.39
2018-12-12T00:48:13.416Z,58.65
2018-12-12T00:50:39.625Z,59.88
2018-12-12T00:53:05.801Z,60.86
2018-12-12T00:55:31.940Z,62.93
2018-12-12T00:57:58.244Z,63.36
2018-12-12T01:00:24.382Z,64.39
2018-12-12T01:02:57.441Z,62.95
2018-12-12T01:05:23.608Z,62.17
2018-12-12T01:07:49.749Z,62.97
2018-12-12T01:10:15.902Z,62.01
2018-12-12T01:12:42.081Z,62.21
2018-12-12T01:15:08.237Z,63.01
2018-12-12T01:17:34.400Z,61.93
2018-12-12T01:20:00.589Z,62.41
2018-12-12T01:22:26.727Z,63.56
2018-12-12T01:24:52.869Z,63.85
2018-12-12T01:27:19.025Z,65.19
2018-12-12T01:29:45.216Z,65.86
2018-12-12T01:32:11.466Z,67.32
2018-12-12T01:34:37.720Z,69.07
2018-12-12T01:37:04.313Z,69.21
2018-12-12T01:39:30.482Z,68.70
2018-12-12T01:41:56.667Z,69.19
2018-12-12T01:44:23.106Z,68.55
2018-12-12T01:46:49.310Z,68.77
2018-12-12T01:49:15.669Z,69.70
2018-12-12T01:51:41.930Z,69.67
2018-12-12T01:54:08.141Z,69.95
2018-12-12T01:56:34.317Z,69.81
2018-12-12T01:59:00.442Z,70.16
2018-12-12T02:01:26.572Z,69.74
2018-12-12T02:03:53.242Z,69.12
2018-12-12T02:06:19.501Z,69.75
2018-12-12T02:08:46.309Z,69.98
2018-12-12T02:11:12.721Z,71.92
2018-12-12T02:13:38.876Z,72.59
2018-12-12T02:16:06.813Z,72.56
2018-12-12T02:18:33.301Z,74.08
2018-12-12T02:20:59.941Z,71.84
2018-12-12T02:23:26.136Z,71.51
2018-12-12T02:25:52.305Z,70.77
2018-12-12T02:28:18.590Z,71.06
2018-12-12T02:30:44.742Z,71.29
2018-12-12T02:33:11.047Z,70.40
2018-12-12T02:35:37.190Z,70.63
2018-12-12T02:38:03.535Z,70.87
2018-12-12T02:40:30.137Z,72.06
2018-12-12T02:42:56.282Z,70.84
2018-12-12T02:45:22.460Z,69.98
2018-12-12T02:47:48.624Z,70.11
2018-12-12T02:50:14.846Z,71.14
2018-12-12T02:52:41.075Z,71.00
2018-12-12T02:55:07.332Z,70.59
2018-12-12T02:57:33.465Z,72.38
2018-12-12T02:59:59.792Z,72.72
2018-12-12T03:02:26.643Z,70.64
2018-12-12T03:04:52.778Z,71.68
2018-12-12T03:07:18.932Z,71.44
2018-12-12T03:09:45.096Z,71.92
2018-12-12T03:12:11.259Z,72.89
2018-12-12T03:14:37.428Z,73.28
2018-12-12T03:17:03.791Z,72.30
2018-12-12T03:19:30.162Z,73.01
2018-12-12T03:21:56.453Z,71.52
2018-12-12T03:24:22.633Z,71.29
2018-12-12T03:26:48.761Z,73.27
2018-12-12T03:29:14.945Z,71.41
2018-12-12T03:31:41.136Z,71.24
2018-12-12T03:34:07.336Z,72.03
2018-12-12T03:36:33.615Z,71.90
2018-12-12T03:38:59.780Z,72.92
2018-12-12T03:41:26.048Z,71.73
2018-12-12T03:43:52.191Z,71.57
2018-12-12T03:46:18.560Z,72.55
2018-12-12T03:48:44.755Z,73.99
2018-12-12T03:51:10.890Z,74.09
2018-12-12T03:53:37.177Z,73.89
2018-12-12T03:56:03.439Z,73.35
2018-12-12T03:58:29.594Z,73.46
2018-12-12T04:01:02.837Z,73.27
2018-12-12T04:03:29.050Z,73.18
2018-12-12T04:05:55.278Z,73.78
2018-12-12T04:08:21.542Z,72.51
2018-12-12T04:10:47.945Z,73.82
2018-12-12T04:13:14.089Z,73.34
2018-12-12T04:15:40.631Z,72.10
2018-12-12T04:18:06.859Z,73.24
2018-12-12T04:20:33.004Z,73.44
2018-12-12T04:22:59.211Z,71.81
2018-12-12T04:25:25.354Z,70.46
2018-12-12T04:27:51.534Z,71.68
2018-12-12T04:30:17.792Z,72.72
2018-12-12T04:32:43.925Z,73.49
2018-12-12T04:35:10.064Z,72.60
2018-12-12T04:37:36.234Z,73.25
2018-12-12T04:40:04.045Z,71.99
2018-12-12T04:42:30.193Z,73.42
2018-12-12T04:44:56.564Z,73.04
2018-12-12T04:47:22.820Z,71.26
2018-12-12T04:49:49.108Z,72.20
2018-12-12T04:52:15.257Z,71.30
2018-12-12T04:54:41.503Z,71.67
2018-12-12T04:57:07.698Z,71.79
2018-12-12T04:59:33.929Z,70.51
2018-12-12T05:02:00.078Z,70.59
2018-12-12T05:04:26.397Z,72.19
2018-12-12T05:06:52.593Z,71.77
2018-12-12T05:09:18.749Z,71.69
2018-12-12T05:11:44.902Z,71.15
2018-12-12T05:14:11.105Z,69.91
2018-12-12T05:16:37.351Z,70.63
2018-12-12T05:19:03.519Z,70.25
2018-12-12T05:21:29.803Z,69.84
2018-12-12T05:23:56.072Z,70.54
2018-12-12T05:26:22.260Z,69.52
2018-12-12T05:28:48.657Z,68.89
2018-12-12T05:31:14.896Z,70.18
2018-12-12T05:33:41.113Z,71.75
2018-12-12T05:36:07.375Z,70.36
2018-12-12T05:38:33.537Z,69.05
2018-12-12T05:40:59.701Z,69.54
2018-12-12T05:43:26.057Z,69.08
2018-12-12T05:45:52.715Z,68.77
2018-12-12T05:48:18.906Z,67.14
2018-12-12T05:50:45.145Z,68.34
2018-12-12T05:53:11.301Z,67.24
2018-12-12T05:55:37.449Z,67.48
2018-12-12T05:58:03.835Z,67.66
2018-12-12T06:00:30.029Z,67.58
2018-12-12T06:02:56.259Z,69.35
2018-12-12T06:05:22.517Z,69.94
2018-12-12T06:07:48.645Z,69.45
2018-12-12T06:10:14.977Z,70.26
2018-12-12T06:12:41.201Z,68.54
2018-12-12T06:15:07.634Z,69.18
2018-12-12T06:17:40.772Z,68.44
2018-12-12T06:20:07.918Z,68.14
2018-12-12T06:22:37.653Z,69.92
2018-12-12T06:25:03.090Z,68.63
2018-12-12T06:27:29.422Z,68.07
2018-12-12T06:29:55.617Z,68.43
2018-12-12T06:32:21.828Z,69.43
2018-12-12T06:34:47.958Z,68.90
2018-12-12T06:37:14.112Z,68.14
2018-12-12T06:39:40.361Z,68.22
2018-12-12T06:42:06.567Z,68.69
2018-12-12T06:44:32.812Z,69.10
2018-12-12T06:46:59.094Z,67.65
2018-12-12T06:49:25.461Z,67.53
2018-12-12T06:51:51.617Z,67.47
2018-12-12T06:54:17.928Z,66.94
2018-12-12T06:56:44.077Z,68.04
2018-12-12T06:59:10.215Z,67.44
2018-12-12T07:01:36.835Z,69.35
2018-12-12T07:04:03.028Z,68.88
2018-12-12T07:06:29.271Z,69.10
2018-12-12T07:08:55.703Z,71.02
2018-12-12T07:11:21.848Z,70.67
2018-12-12T07:13:48.125Z,68.63
2018-12-12T07:16:14.387Z,67.76
2018-12-12T07:18:40.597Z,68.73
2018-12-12T07:21:06.720Z,69.02
2018-12-12T07:23:33.070Z,69.41
2018-12-12T07:25:59.298Z,67.58
2018-12-12T07:28:25.495Z,69.79
2018-12-12T07:30:51.753Z,68.23
2018-12-12T07:33:17.897Z,67.56
2018-12-12T07:35:44.043Z,67.93
2018-12-12T07:38:10.439Z,66.89
2018-12-12T07:40:36.647Z,66.98
2018-12-12T07:43:02.792Z,66.92
2018-12-12T07:45:28.964Z,67.41
2018-12-12T07:48:01.273Z,68.03
2018-12-12T07:50:23.509Z,68.26
2018-12-12T07:52:49.817Z,67.68
2018-12-12T07:55:16.078Z,66.13
2018-12-12T07:57:42.273Z,66.45
2018-12-12T08:00:08.755Z,65.43
2018-12-12T08:02:35.156Z,66.68
2018-12-12T08:05:01.357Z,65.81
2018-12-12T08:10:04.876Z,65.36
2018-12-12T08:12:31.097Z,66.43
2018-12-12T08:14:57.217Z,67.02
2018-12-12T08:17:23.349Z,66.08
2018-12-12T08:19:49.497Z,65.44
2018-12-12T08:22:15.849Z,66.36
2018-12-12T08:24:42.078Z,64.83
2018-12-12T08:27:08.271Z,66.29
2018-12-12T08:29:34.407Z,65.43
2018-12-12T08:32:00.725Z,65.29
2018-12-12T08:34:26.987Z,66.35
2018-12-12T08:36:53.215Z,66.05
2018-12-12T08:39:19.443Z,66.12
2018-12-12T08:41:45.622Z,67.13
2018-12-12T08:44:11.864Z,66.20
2018-12-12T08:46:38.005Z,66.64
2018-12-12T08:49:04.205Z,66.01
2018-12-12T08:51:30.549Z,65.50
2018-12-12T08:53:56.809Z,66.04
2018-12-12T08:56:23.038Z,65.42
2018-12-12T08:58:49.177Z,65.21
2018-12-12T09:01:15.498Z,65.67
2018-12-12T09:03:41.679Z,64.62
2018-12-12T09:06:07.948Z,63.34
2018-12-12T09:08:34.162Z,62.44
2018-12-12T09:11:00.388Z,61.16
2018-12-12T09:13:26.554Z,62.35
2018-12-12T09:15:52.725Z,62.79
2018-12-12T09:18:19.071Z,62.78
2018-12-12T09:20:45.315Z,63.30
2018-12-12T09:23:11.508Z,62.67
2018-12-12T09:25:37.771Z,61.34
2018-12-12T09:28:04.000Z,61.29
2018-12-12T09:30:30.401Z,61.09
2018-12-12T09:32:56.872Z,58.98
2018-12-12T09:35:23.268Z,57.06
2018-12-12T09:37:49.406Z,56.83
2018-12-12T09:40:15.617Z,58.64
2018-12-12T09:42:41.774Z,60.07
2018-12-12T09:45:08.042Z,58.53
2018-12-12T09:47:34.434Z,57.81
2018-12-12T09:50:00.646Z,58.20
2018-12-12T09:52:26.799Z,57.99
2018-12-12T09:54:52.973Z,58.60
2018-12-12T09:57:19.313Z,57.11
2018-12-12T09:59:45.508Z,55.78
2018-12-12T10:02:11.783Z,54.04
2018-12-12T10:04:38.030Z,53.93
2018-12-12T10:07:04.257Z,55.11
2018-12-12T10:09:30.487Z,59.02
2018-12-12T10:11:56.644Z,58.68
2018-12-12T10:14:22.837Z,58.64
2018-12-12T10:16:49.137Z,57.35
2018-12-12T10:19:15.779Z,59.63
2018-12-12T10:21:41.940Z,58.36
2018-12-12T10:24:08.129Z,59.05
2018-12-12T10:26:34.660Z,56.18
2018-12-12T10:29:01.062Z,58.38
2018-12-12T10:31:27.397Z,57.30
2018-12-12T10:33:53.537Z,55.41
2018-12-12T10:36:19.787Z,55.50
2018-12-12T10:38:46.036Z,54.10
2018-12-12T10:41:12.193Z,54.88
2018-12-12T10:43:38.350Z,55.93
2018-12-12T10:46:04.690Z,57.43
2018-12-12T10:48:30.960Z,59.87
2018-12-12T10:50:57.382Z,57.57
2018-12-12T10:53:23.782Z,56.11
2018-12-12T10:58:26.188Z,60.29
2018-12-12T11:00:58.461Z,60.10
2018-12-12T11:03:30.758Z,58.99
2018-12-12T11:05:57.029Z,58.60
2018-12-12T11:08:23.215Z,57.85
2018-12-12T11:10:49.667Z,58.06
2018-12-12T11:13:15.822Z,56.99
2018-12-12T11:15:41.966Z,55.91
2018-12-12T11:18:08.142Z,55.62
2018-12-12T11:20:34.358Z,49.74
2018-12-12T11:23:00.517Z,50.37
2018-12-12T11:25:26.675Z,53.34
2018-12-12T11:27:52.818Z,52.68
2018-12-12T11:30:18.994Z,56.38
2018-12-12T11:32:45.204Z,58.22
2018-12-12T11:35:11.329Z,59.28
2018-12-12T11:37:37.473Z,58.09
2018-12-12T11:40:04.793Z,56.76
2018-12-12T11:42:30.926Z,56.50
2018-12-12T11:44:57.069Z,56.53
2018-12-12T11:47:23.241Z,57.07
2018-12-12T11:49:49.554Z,57.28
2018-12-12T11:52:15.681Z,57.61
2018-12-12T11:54:41.861Z,57.81
2018-12-12T11:57:08.673Z,57.54
2018-12-12T11:59:34.901Z,58.76
2018-12-12T12:02:01.170Z,56.79
2018-12-12T12:04:27.309Z,55.38
2018-12-12T12:06:53.448Z,54.42
2018-12-12T12:09:19.666Z,55.34
2018-12-12T12:11:45.806Z,54.17
2018-12-12T12:14:11.925Z,53.35
2018-12-12T12:16:38.095Z,53.32
2018-12-12T12:19:04.240Z,54.30
2018-12-12T12:21:30.382Z,53.89
2018-12-12T12:24:03.541Z,53.20
2018-12-12T12:26:29.929Z,52.73
2018-12-12T12:28:56.413Z,53.61
2018-12-12T12:31:23.982Z,53.74
2018-12-12T12:33:50.267Z,54.80
2018-12-12T12:36:16.424Z,55.96
2018-12-12T12:38:42.589Z,54.12
2018-12-12T12:41:08.713Z,54.80
2018-12-12T12:43:34.862Z,56.31
2018-12-12T12:46:01.036Z,56.25
2018-12-12T12:48:27.190Z,55.15
2018-12-12T12:50:53.355Z,54.77
2018-12-12T12:53:19.525Z,54.39
2018-12-12T12:55:45.664Z,54.51
2018-12-12T12:58:11.830Z,54.56
2018-12-12T13:00:38.005Z,53.16
2018-12-12T13:03:04.184Z,53.30
2018-12-12T13:05:30.337Z,54.06
2018-12-12T13:07:56.486Z,54.62
2018-12-12T13:10:22.931Z,53.73
2018-12-12T13:12:49.327Z,53.40
2018-12-12T13:15:15.745Z,52.78
2018-12-12T13:17:41.896Z,51.94
2018-12-12T13:20:08.066Z,52.02
2018-12-12T13:22:34.245Z,52.96
2018-12-12T13:25:00.392Z,52.30
2018-12-12T13:27:26.534Z,53.06
2018-12-12T13:29:52.722Z,54.52
2018-12-12T13:32:18.862Z,52.89
2018-12-12T13:34:45.019Z,52.81
2018-12-12T13:37:11.194Z,55.00
2018-12-12T13:39:37.321Z,53.76
2018-12-12T13:42:03.464Z,53.95
2018-12-12T13:44:29.666Z,53.76
2018-12-12T13:46:55.793Z,54.60
2018-12-12T13:49:21.913Z,55.34
2018-12-12T13:51:48.066Z,56.11
2018-12-12T13:54:14.197Z,55.84
2018-12-12T13:56:40.330Z,55.11
2018-12-12T13:59:06.530Z,54.99
2018-12-12T14:01:32.677Z,54.21
2018-12-12T14:03:58.812Z,54.12
2018-12-12T14:06:25.001Z,56.25
2018-12-12T14:08:51.139Z,57.00
2018-12-12T14:11:17.282Z,56.63
2018-12-12T14:13:43.438Z,55.27
2018-12-12T14:16:09.623Z,57.58
2018-12-12T14:18:35.765Z,56.17
2018-12-12T14:21:01.945Z,56.96
2018-12-12T14:23:28.117Z,57.99
2018-12-12T14:25:54.262Z,58.36
2018-12-12T14:28:20.471Z,59.23
2018-12-12T14:30:46.733Z,59.34
2018-12-12T14:33:12.870Z,60.59
2018-12-12T14:35:39.041Z,61.02
2018-12-12T14:38:05.195Z,60.82
2018-12-12T14:40:31.341Z,59.93
2018-12-12T14:42:57.497Z,59.69
2018-12-12T14:45:23.629Z,61.42
2018-12-12T14:47:49.785Z,60.30
2018-12-12T14:50:15.993Z,61.44
2018-12-12T14:52:42.143Z,60.86
2018-12-12T14:55:08.304Z,60.48
2018-12-12T14:57:34.478Z,60.41
2018-12-12T15:00:00.880Z,60.28
2018-12-12T15:02:27.067Z,60.49
2018-12-12T15:04:53.339Z,60.12
2018-12-12T15:07:19.489Z,60.99
2018-12-12T15:09:45.653Z,60.78
2018-12-12T15:12:11.853Z,62.52
2018-12-12T15:14:37.980Z,60.80
2018-12-12T15:17:04.270Z,61.95
2018-12-12T15:19:30.449Z,60.45
2018-12-12T15:21:56.586Z,59.87
2018-12-12T15:24:22.733Z,60.30
2018-12-12T15:26:48.895Z,60.36
2018-12-12T15:29:15.033Z,60.60
2018-12-12T15:31:41.180Z,61.29
2018-12-12T15:34:07.405Z,62.89
2018-12-12T15:36:33.553Z,62.25
2018-12-12T15:38:59.693Z,61.84
2018-12-12T15:41:25.889Z,62.48
2018-12-12T15:43:52.016Z,62.56
2018-12-12T15:46:18.205Z,60.89
2018-12-12T15:48:44.412Z,62.00
2018-12-12T15:53:44.269Z,61.64
2018-12-12T15:56:10.507Z,60.53
2018-12-12T15:58:36.723Z,60.38
2018-12-12T16:01:02.878Z,60.46
2018-12-12T16:03:29.072Z,59.58
2018-12-12T16:05:55.260Z,60.03
2018-12-12T16:08:21.446Z,58.86
2018-12-12T16:10:47.662Z,58.16
2018-12-12T16:13:14.144Z,58.08
2018-12-12T16:15:40.318Z,57.65
2018-12-12T16:18:06.519Z,57.38
2018-12-12T16:20:32.748Z,57.06
2018-12-12T16:22:58.889Z,57.37
2018-12-12T16:25:25.085Z,57.49
2018-12-12T16:27:52.279Z,57.44
2018-12-12T16:30:18.550Z,57.85
2018-12-12T16:32:44.950Z,57.98
2018-12-12T16:35:11.100Z,58.72
2018-12-12T16:37:37.247Z,58.16
2018-12-12T16:40:04.723Z,58.35
2018-12-12T16:42:30.871Z,57.99
2018-12-12T16:44:56.998Z,58.36
2018-12-12T16:47:23.233Z,59.06
2018-12-12T16:49:49.401Z,59.53
2018-12-12T16:52:15.544Z,58.79
2018-12-12T16:54:41.710Z,58.61
2018-12-12T16:57:07.866Z,58.31
2018-12-12T16:59:34.049Z,56.76
2018-12-12T17:02:00.269Z,57.43
2018-12-12T17:04:28.404Z,63.14
2018-12-12T17:06:54.733Z,63.50
2018-12-12T17:09:21.964Z,63.97
2018-12-12T17:11:50.409Z,65.66
2018-12-12T17:14:20.187Z,65.37
2018-12-12T17:16:46.385Z,66.42
2018-12-12T17:19:12.523Z,68.85
2018-12-12T17:21:39.864Z,66.68
2018-12-12T17:24:07.211Z,66.25
2018-12-12T17:26:38.160Z,65.77
2018-12-12T17:29:04.705Z,66.39
2018-12-12T17:31:34.529Z,67.17
2018-12-12T17:34:00.693Z,65.04
2018-12-12T17:36:26.832Z,65.21
2018-12-12T17:38:53.000Z,63.08
2018-12-12T17:41:19.295Z,65.34
2018-12-12T17:43:46.026Z,65.12
2018-12-12T17:46:12.410Z,63.76
2018-12-12T17:48:38.581Z,64.42
2018-12-12T17:51:04.723Z,62.67
2018-12-12T17:53:30.905Z,63.00
2018-12-12T17:55:57.069Z,63.20
2018-12-12T17:58:23.214Z,63.30
2018-12-12T18:00:49.486Z,64.37
2018-12-12T18:03:15.621Z,63.16
2018-12-12T18:05:41.744Z,63.38
2018-12-12T18:08:07.925Z,61.73
2018-12-12T18:10:35.617Z,62.19
2018-12-12T18:13:02.057Z,61.86
2018-12-12T18:15:28.216Z,62.36
2018-12-12T18:17:54.386Z,60.90
2018-12-12T18:20:20.549Z,60.49
2018-12-12T18:22:46.717Z,60.17
2018-12-12T18:25:12.848Z,60.12
2018-12-12T18:27:38.993Z,61.30
2018-12-12T18:30:06.345Z,61.64
2018-12-12T18:32:32.512Z,61.58
2018-12-12T18:34:58.658Z,62.10
2018-12-12T18:37:24.818Z,63.55
2018-12-12T18:39:50.957Z,63.91
2018-12-12T18:42:17.113Z,63.43
2018-12-12T18:44:43.289Z,63.50
2018-12-12T18:47:09.414Z,62.67
2018-12-12T18:49:35.547Z,62.78
2018-12-12T18:52:01.704Z,63.75
2018-12-12T18:54:27.881Z,63.81
2018-12-12T18:56:54.051Z,63.60
2018-12-12T18:59:20.249Z,63.66
2018-12-12T19:01:46.410Z,64.40
2018-12-12T19:04:12.562Z,63.88
2018-12-12T19:06:38.741Z,63.53
2018-12-12T19:09:05.037Z,64.01
2018-12-12T19:11:31.194Z,64.12
2018-12-12T19:13:57.362Z,63.92
2018-12-12T19:16:23.528Z,63.78
2018-12-12T19:18:49.700Z,63.96
2018-12-12T19:21:15.865Z,63.78
2018-12-12T19:23:42.054Z,64.44
2018-12-12T19:26:08.195Z,64.15
2018-12-12T19:28:34.358Z,64.46
2018-12-12T19:31:00.630Z,64.19
2018-12-12T19:33:26.777Z,63.89
2018-12-12T19:35:52.986Z,63.48
2018-12-12T19:38:19.185Z,63.64
2018-12-12T19:40:45.346Z,62.64
2018-12-12T19:43:11.549Z,62.36
2018-12-12T19:45:37.761Z,61.98
2018-12-12T19:48:03.900Z,61.88
2018-12-12T19:50:30.065Z,62.27
2018-12-12T19:52:56.233Z,62.03
2018-12-12T19:55:22.377Z,61.73
2018-12-12T19:57:48.551Z,61.14
2018-12-12T20:00:14.705Z,62.14
2018-12-12T20:02:40.851Z,62.24
2018-12-12T20:05:07.203Z,61.75
2018-12-12T20:07:33.362Z,62.55
2018-12-12T20:09:59.522Z,62.28
2018-12-12T20:12:25.719Z,62.54
2018-12-12T20:14:51.877Z,62.90
2018-12-12T20:17:18.030Z,62.80
2018-12-12T20:19:44.197Z,61.63
2018-12-12T20:22:10.358Z,61.92
2018-12-12T20:24:37.169Z,60.38
2018-12-12T20:27:03.868Z,59.71
2018-12-12T20:29:30.018Z,58.72
2018-12-12T20:31:56.172Z,58.74
2018-12-12T20:34:22.350Z,59.26
2018-12-12T20:36:48.481Z,58.58
2018-12-12T20:39:14.642Z,58.93
2018-12-12T20:41:40.845Z,59.79
2018-12-12T20:44:06.986Z,59.09
2018-12-12T20:46:33.137Z,58.86
2018-12-12T20:48:59.313Z,58.78
2018-12-12T20:51:25.481Z,57.01
2018-12-12T20:53:51.653Z,57.31
2018-12-12T20:56:17.808Z,56.22
2018-12-12T20:58:43.953Z,55.11
2018-12-12T21:01:10.160Z,56.08
2018-12-12T21:03:36.340Z,55.55
2018-12-12T21:06:02.486Z,55.63
2018-12-12T21:08:28.638Z,55.60
2018-12-12T21:10:54.844Z,54.78
2018-12-12T21:13:20.982Z,54.76
2018-12-12T21:15:47.133Z,55.41
2018-12-12T21:18:13.352Z,55.27
2018-12-12T21:20:39.516Z,55.98
2018-12-12T21:23:05.674Z,55.48
2018-12-12T21:25:32.504Z,55.98
2018-12-12T21:27:58.638Z,56.14
2018-12-12T21:30:24.769Z,57.99
2018-12-12T21:32:50.938Z,58.39
2018-12-12T21:35:17.101Z,58.35
2018-12-12T21:37:43.248Z,59.80
2018-12-12T21:40:09.445Z,59.54
2018-12-12T21:42:35.605Z,59.51
2018-12-12T21:45:01.774Z,59.42
2018-12-12T21:47:27.956Z,59.14
2018-12-12T21:49:54.109Z,59.75
2018-12-12T21:52:20.260Z,58.97
2018-12-12T21:54:46.420Z,58.43
2018-12-12T21:57:12.562Z,58.33
2018-12-12T21:59:38.713Z,58.87
2018-12-12T22:02:04.893Z,59.47
2018-12-12T22:04:37.038Z,59.74
2018-12-12T22:06:59.209Z,59.32
2018-12-12T22:09:25.393Z,60.06
2018-12-12T22:11:51.529Z,59.72
2018-12-12T22:16:53.991Z,59.79
2018-12-12T22:19:20.140Z,59.74
2018-12-12T22:21:46.270Z,59.26
2018-12-12T22:24:12.450Z,59.34
2018-12-12T22:26:38.586Z,59.83
2018-12-12T22:29:04.749Z,60.63
2018-12-12T22:31:30.909Z,60.26
2018-12-12T22:33:57.048Z,59.99
2018-12-12T22:36:23.317Z,60.72
2018-12-12T22:38:49.602Z,60.78
2018-12-12T22:41:15.737Z,59.71
2018-12-12T22:43:41.861Z,59.97
2018-12-12T22:46:08.032Z,59.46
2018-12-12T22:48:34.193Z,58.72
2018-12-12T22:51:00.341Z,58.40
2018-12-12T22:53:26.501Z,58.33
2018-12-12T22:55:52.628Z,59.49
2018-12-12T22:58:18.766Z,59.11
2018-12-12T23:00:47.850Z,58.65
2018-12-12T23:03:13.989Z,59.18
2018-12-12T23:05:40.121Z,59.78
2018-12-12T23:08:06.285Z,60.19
2018-12-12T23:10:32.438Z,59.44
2018-12-12T23:12:58.573Z,59.79
2018-12-12T23:15:24.985Z,59.49
2018-12-12T23:17:51.125Z,59.84
2018-12-12T23:20:17.266Z,59.42
2018-12-12T23:22:43.429Z,59.69
2018-12-12T23:25:09.545Z,59.11
2018-12-12T23:27:35.680Z,59.21
2018-12-12T23:30:03.209Z,58.22
2018-12-12T23:32:29.349Z,58.13
2018-12-12T23:34:55.495Z,57.94
2018-12-12T23:37:21.673Z,58.77
2018-12-12T23:39:47.809Z,58.45
2018-12-12T23:42:13.930Z,59.50
2018-12-12T23:44:40.133Z,59.03
2018-12-12T23:47:06.265Z,58.73
2018-12-12T23:49:32.396Z,58.68
2018-12-12T23:51:58.573Z,58.56
2018-12-12T23:54:24.725Z,58.34
2018-12-12T23:56:50.852Z,57.69
2018-12-12T23:59:18.032Z,57.92
